Eko 2 — SY9957 — position and weather

sailwx.info

Track history (hours):
 
Tides and Currents Weather Stations Pressure Air Temp Water Temp Dewpoint Dewpoint Depression Visibility Wind Speed Wind Dir Waves Ship Positions

Eko 2

Last reported at 2015-Jun-30 07:31 UTC. Time now 2015-Jun-30 08:18 UTC.
Position N 36°23' E 025°26'.

Length 89 m; draft 4.4 m.

Type: Ship (hazmat cat A). MMSI: 240827000.

Date/timePositionNaut miles runAvg speedWind from/ knotsBaromVisibWave heightAir tempDewpointWater temp
2015-Jun-30 07:31N 36°23' E 025°26'0 0.0
2015-Jun-30 06:31N 36°23' E 025°26'1 1.0
2015-Jun-30 05:33N 36°23' E 025°25'4 3.9
2015-Jun-30 04:33N 36°21' E 025°21'1 1.4
2015-Jun-30 03:32N 36°21' E 025°22'0 0.0
2015-Jun-30 02:29N 36°21' E 025°22'0 0.0
2015-Jun-30 01:23N 36°21' E 025°22'2 2.0
2015-Jun-30 00:33N 36°22' E 025°21'4 4.1
2015-Jun-29 23:32N 36°23' E 025°26'0 0.0
2015-Jun-29 22:32N 36°23' E 025°26'0 0.0
2015-Jun-29 21:33N 36°23' E 025°26'0 0.0
2015-Jun-29 20:30N 36°23' E 025°26'0 0.0
2015-Jun-29 19:33N 36°23' E 025°26'0 0.0
2015-Jun-29 18:30N 36°23' E 025°26'4 3.7
2015-Jun-29 17:30N 36°21' E 025°22'0 0.0
2015-Jun-29 16:27N 36°21' E 025°22'0 0.0
2015-Jun-29 15:33N 36°21' E 025°22'0 0.0
2015-Jun-29 14:33N 36°21' E 025°22'1 0.2
2015-Jun-29 06:33N 36°20' E 025°23'9 8.8
2015-Jun-29 05:32N 36°22' E 025°34'1010.1
2015-Jun-29 04:33N 36°28' E 025°44'1010.2
2015-Jun-29 03:33N 36°34' E 025°54'10 9.8
2015-Jun-29 02:33N 36°40' E 026°04'69 1.3
2015-Jun-26 23:26N 35°37' E 026°39'910.3
2015-Jun-26 22:33N 35°42' E 026°29'1110.0
2015-Jun-26 21:30N 35°47' E 026°18'1110.0
2015-Jun-26 20:24N 35°53' E 026°07'910.0
2015-Jun-26 19:33N 35°58' E 025°58'1010.1
2015-Jun-26 18:33N 36°04' E 025°48'1110.2
2015-Jun-26 17:30N 36°10' E 025°37'1010.1
2015-Jun-26 16:33N 36°16' E 025°28'8 8.2
2015-Jun-26 15:33N 36°23' E 025°22'3 3.2
2015-Jun-26 14:30N 36°23' E 025°26'0 0.0
2015-Jun-26 13:30N 36°23' E 025°26'0 0.0
2015-Jun-26 12:33N 36°23' E 025°26'0 0.0
2015-Jun-26 11:33N 36°23' E 025°26'0 0.0
2015-Jun-26 10:24N 36°23' E 025°26'0 0.0
2015-Jun-26 09:30N 36°23' E 025°26'0 0.0
2015-Jun-26 08:33N 36°23' E 025°26'0 0.0
2015-Jun-26 07:30N 36°23' E 025°26'0 0.0
2015-Jun-26 06:33N 36°23' E 025°26'0 0.0
2015-Jun-26 03:24N 36°23' E 025°26'0 0.0
2015-Jun-26 02:30N 36°23' E 025°26'0 0.0
2015-Jun-26 01:33N 36°23' E 025°26'0 0.0
2015-Jun-26 00:33N 36°23' E 025°26'0 0.0
2015-Jun-25 23:27N 36°23' E 025°26'0 0.0
2015-Jun-25 22:33N 36°23' E 025°26'0 0.0
2015-Jun-25 21:33N 36°23' E 025°26'0 0.0
2015-Jun-25 20:33N 36°23' E 025°26'0 0.0
2015-Jun-25 19:33N 36°23' E 025°26'0 0.0
2015-Jun-25 18:33N 36°23' E 025°26'0 0.0
2015-Jun-25 17:27N 36°23' E 025°26'0 0.0
2015-Jun-25 16:33N 36°23' E 025°26'0 0.0
2015-Jun-25 15:33N 36°23' E 025°26'5 5.1
2015-Jun-25 14:33N 36°19' E 025°22'5 4.8
2015-Jun-25 13:33N 36°16' E 025°27'1 0.5
2015-Jun-25 12:31N 36°17' E 025°27'1 0.7
2015-Jun-25 11:33N 36°17' E 025°26'1 0.9
2015-Jun-25 10:33N 36°18' E 025°26'1 0.9
2015-Jun-25 09:32N 36°19' E 025°25'1 0.8
2015-Jun-25 08:22N 36°19' E 025°24'5 5.0
2015-Jun-25 07:16N 36°20' E 025°31'7 9.4
2015-Jun-25 06:33N 36°26' E 025°35'10 9.5
2015-Jun-25 05:33N 36°35' E 025°37'10 9.5
2015-Jun-25 04:33N 36°45' E 025°40'9 8.6
2015-Jun-25 03:33N 36°50' E 025°48'2 0.1
2015-Jun-24 15:33N 36°50' E 025°50'7 6.7
2015-Jun-24 14:30N 36°49' E 025°41'8 8.4
2015-Jun-24 13:33N 36°44' E 025°34'13 8.8
2015-Jun-24 12:03N 36°34' E 025°23'5 9.7
2015-Jun-24 11:33N 36°35' E 025°17'14 9.7
2015-Jun-24 10:06N 36°36' E 024°59'610.0
2015-Jun-24 09:33N 36°41' E 024°56'103 2.3
2015-Jun-22 13:19N 38°02' E 023°36'3 3.2
2015-Jun-22 12:31N 38°02' E 023°32'0 0.0
2015-Jun-22 11:28N 38°02' E 023°32'0 0.0
2015-Jun-22 10:34N 38°02' E 023°32'0 0.0
2015-Jun-22 09:22N 38°02' E 023°32'0 0.0
2015-Jun-22 08:28N 38°02' E 023°32'0 0.0
2015-Jun-22 07:34N 38°02' E 023°32'0 0.0
2015-Jun-22 06:13N 38°02' E 023°32'0 0.0
2015-Jun-22 05:22N 38°02' E 023°32'0 0.0
2015-Jun-22 04:34N 38°02' E 023°32'0 0.0
2015-Jun-22 03:16N 38°02' E 023°32'0 0.0
2015-Jun-22 02:25N 38°02' E 023°32'0 0.0
2015-Jun-22 01:25N 38°02' E 023°32'0 0.0
2015-Jun-22 00:28N 38°02' E 023°32'0 0.0
2015-Jun-21 23:16N 38°02' E 023°32'0 0.0
2015-Jun-21 22:28N 38°02' E 023°32'0 0.0
2015-Jun-21 21:34N 38°02' E 023°32'0 0.0
2015-Jun-21 20:34N 38°02' E 023°32'0 0.0
2015-Jun-21 19:28N 38°02' E 023°32'0 0.0
2015-Jun-21 18:34N 38°02' E 023°32'0 0.0
2015-Jun-21 17:22N 38°02' E 023°32'0 0.0
2015-Jun-21 16:31N 38°02' E 023°32'0 0.0
2015-Jun-21 15:13N 38°02' E 023°32'5 7.0
2015-Jun-21 14:33N 37°57' E 023°34'9 9.5
2015-Jun-21 13:33N 37°49' E 023°40'1111.3
2015-Jun-21 12:33N 37°39' E 023°46'1211.6
2015-Jun-21 11:32N 37°28' E 023°52'59 2.7
2015-Jun-20 13:28N 37°02' E 024°58'9 9.8
2015-Jun-20 12:33N 37°05' E 025°09'0 0.3
2015-Jun-20 11:29N 37°05' E 025°09'0 0.2
2015-Jun-20 09:30N 37°05' E 025°09'0 0.0
2015-Jun-20 08:33N 37°05' E 025°09'  
Track history (hours):
 
Tides and Currents Weather Stations Pressure Air Temp Water Temp Dewpoint Dewpoint Depression Visibility Wind Speed Wind Dir Waves Ship Positions

Eko 2

Last reported at 2015-Jun-30 07:31 UTC. Time now 2015-Jun-30 08:18 UTC.
Position N 36°23' E 025°26'.

Length 89 m; draft 4.4 m.

Type: Ship (hazmat cat A). MMSI: 240827000.

Date/timePositionNaut miles runAvg speedWind from/ knotsBaromVisibWave heightAir tempDewpointWater temp
2015-Jun-30 07:31N 36°23' E 025°26'0 0.0
2015-Jun-30 06:31N 36°23' E 025°26'1 1.0
2015-Jun-30 05:33N 36°23' E 025°25'4 3.9
2015-Jun-30 04:33N 36°21' E 025°21'1 1.4
2015-Jun-30 03:32N 36°21' E 025°22'0 0.0
2015-Jun-30 02:29N 36°21' E 025°22'0 0.0
2015-Jun-30 01:23N 36°21' E 025°22'2 2.0
2015-Jun-30 00:33N 36°22' E 025°21'4 4.1
2015-Jun-29 23:32N 36°23' E 025°26'0 0.0
2015-Jun-29 22:32N 36°23' E 025°26'0 0.0
2015-Jun-29 21:33N 36°23' E 025°26'0 0.0
2015-Jun-29 20:30N 36°23' E 025°26'0 0.0
2015-Jun-29 19:33N 36°23' E 025°26'0 0.0
2015-Jun-29 18:30N 36°23' E 025°26'4 3.7
2015-Jun-29 17:30N 36°21' E 025°22'0 0.0
2015-Jun-29 16:27N 36°21' E 025°22'0 0.0
2015-Jun-29 15:33N 36°21' E 025°22'0 0.0
2015-Jun-29 14:33N 36°21' E 025°22'1 0.2
2015-Jun-29 06:33N 36°20' E 025°23'9 8.8
2015-Jun-29 05:32N 36°22' E 025°34'1010.1
2015-Jun-29 04:33N 36°28' E 025°44'1010.2
2015-Jun-29 03:33N 36°34' E 025°54'10 9.8
2015-Jun-29 02:33N 36°40' E 026°04'69 1.3
2015-Jun-26 23:26N 35°37' E 026°39'910.3
2015-Jun-26 22:33N 35°42' E 026°29'1110.0
2015-Jun-26 21:30N 35°47' E 026°18'1110.0
2015-Jun-26 20:24N 35°53' E 026°07'910.0
2015-Jun-26 19:33N 35°58' E 025°58'1010.1
2015-Jun-26 18:33N 36°04' E 025°48'1110.2
2015-Jun-26 17:30N 36°10' E 025°37'1010.1
2015-Jun-26 16:33N 36°16' E 025°28'8 8.2
2015-Jun-26 15:33N 36°23' E 025°22'3 3.2
2015-Jun-26 14:30N 36°23' E 025°26'0 0.0
2015-Jun-26 13:30N 36°23' E 025°26'0 0.0
2015-Jun-26 12:33N 36°23' E 025°26'0 0.0
2015-Jun-26 11:33N 36°23' E 025°26'0 0.0
2015-Jun-26 10:24N 36°23' E 025°26'0 0.0
2015-Jun-26 09:30N 36°23' E 025°26'0 0.0
2015-Jun-26 08:33N 36°23' E 025°26'0 0.0
2015-Jun-26 07:30N 36°23' E 025°26'0 0.0
2015-Jun-26 06:33N 36°23' E 025°26'0 0.0
2015-Jun-26 03:24N 36°23' E 025°26'0 0.0
2015-Jun-26 02:30N 36°23' E 025°26'0 0.0
2015-Jun-26 01:33N 36°23' E 025°26'0 0.0
2015-Jun-26 00:33N 36°23' E 025°26'0 0.0
2015-Jun-25 23:27N 36°23' E 025°26'0 0.0
2015-Jun-25 22:33N 36°23' E 025°26'0 0.0
2015-Jun-25 21:33N 36°23' E 025°26'0 0.0
2015-Jun-25 20:33N 36°23' E 025°26'0 0.0
2015-Jun-25 19:33N 36°23' E 025°26'0 0.0
2015-Jun-25 18:33N 36°23' E 025°26'0 0.0
2015-Jun-25 17:27N 36°23' E 025°26'0 0.0
2015-Jun-25 16:33N 36°23' E 025°26'0 0.0
2015-Jun-25 15:33N 36°23' E 025°26'5 5.1
2015-Jun-25 14:33N 36°19' E 025°22'5 4.8
2015-Jun-25 13:33N 36°16' E 025°27'1 0.5
2015-Jun-25 12:31N 36°17' E 025°27'1 0.7
2015-Jun-25 11:33N 36°17' E 025°26'1 0.9
2015-Jun-25 10:33N 36°18' E 025°26'1 0.9
2015-Jun-25 09:32N 36°19' E 025°25'1 0.8
2015-Jun-25 08:22N 36°19' E 025°24'5 5.0
2015-Jun-25 07:16N 36°20' E 025°31'7 9.4
2015-Jun-25 06:33N 36°26' E 025°35'10 9.5
2015-Jun-25 05:33N 36°35' E 025°37'10 9.5
2015-Jun-25 04:33N 36°45' E 025°40'9 8.6
2015-Jun-25 03:33N 36°50' E 025°48'2 0.1
2015-Jun-24 15:33N 36°50' E 025°50'7 6.7
2015-Jun-24 14:30N 36°49' E 025°41'8 8.4
2015-Jun-24 13:33N 36°44' E 025°34'13 8.8
2015-Jun-24 12:03N 36°34' E 025°23'5 9.7
2015-Jun-24 11:33N 36°35' E 025°17'14 9.7
2015-Jun-24 10:06N 36°36' E 024°59'610.0
2015-Jun-24 09:33N 36°41' E 024°56'103 2.3
2015-Jun-22 13:19N 38°02' E 023°36'3 3.2
2015-Jun-22 12:31N 38°02' E 023°32'0 0.0
2015-Jun-22 11:28N 38°02' E 023°32'0 0.0
2015-Jun-22 10:34N 38°02' E 023°32'0 0.0
2015-Jun-22 09:22N 38°02' E 023°32'0 0.0
2015-Jun-22 08:28N 38°02' E 023°32'0 0.0
2015-Jun-22 07:34N 38°02' E 023°32'0 0.0
2015-Jun-22 06:13N 38°02' E 023°32'0 0.0
2015-Jun-22 05:22N 38°02' E 023°32'0 0.0
2015-Jun-22 04:34N 38°02' E 023°32'0 0.0
2015-Jun-22 03:16N 38°02' E 023°32'0 0.0
2015-Jun-22 02:25N 38°02' E 023°32'0 0.0
2015-Jun-22 01:25N 38°02' E 023°32'0 0.0
2015-Jun-22 00:28N 38°02' E 023°32'0 0.0
2015-Jun-21 23:16N 38°02' E 023°32'0 0.0
2015-Jun-21 22:28N 38°02' E 023°32'0 0.0
2015-Jun-21 21:34N 38°02' E 023°32'0 0.0
2015-Jun-21 20:34N 38°02' E 023°32'0 0.0
2015-Jun-21 19:28N 38°02' E 023°32'0 0.0
2015-Jun-21 18:34N 38°02' E 023°32'0 0.0
2015-Jun-21 17:22N 38°02' E 023°32'0 0.0
2015-Jun-21 16:31N 38°02' E 023°32'0 0.0
2015-Jun-21 15:13N 38°02' E 023°32'5 7.0
2015-Jun-21 14:33N 37°57' E 023°34'9 9.5
2015-Jun-21 13:33N 37°49' E 023°40'1111.3
2015-Jun-21 12:33N 37°39' E 023°46'1211.6
2015-Jun-21 11:32N 37°28' E 023°52'59 2.7
2015-Jun-20 13:28N 37°02' E 024°58'9 9.8
2015-Jun-20 12:33N 37°05' E 025°09'0 0.3
2015-Jun-20 11:29N 37°05' E 025°09'0 0.2
2015-Jun-20 09:30N 37°05' E 025°09'0 0.0
2015-Jun-20 08:33N 37°05' E 025°09'  

Dump ship's entire track history